Airfield :
LOGIN :

Register | Disclaimer

   EN    FR    IT 

 










Legend :    VFR   Marginal VFR   IFR   Intensive IFR   Very Intensive IFR
Visi :
Ceiling :
>= 8 km
>= 3000ft
5 to 8 km
1000 to 3000 ft
1500m to 5 km
500 to 1000 ft
800 to 1500m
200 to 500 ft
< 800m
< 200 ft
Symbols :   Thunderstorms  Fog  Heavy snow  Heavy precipitations  Wind > 20 kt
SIGMETs :     Misc.  Thunderstorms  Icing  Turbulence  Mountain Waves  Volcanic Ashes






- Airport Elevation : 97 ft
- IATA code : EBJ


EKEB - Esbjerg

CURRENT METAR :
  • 150220Z AUTO 05006KT 5000 FEW220/// 04/03 Q1012

EXPIRED METARs :
  • 150150Z AUTO 04005KT 2600 BR NCD 03/02 Q1013
  • 150120Z AUTO 06005KT 040V100 4300 BR BKN006/// 04/04 Q1013
  • 150050Z AUTO 06006KT 030V090 4400 BR SCT006/// 05/04 Q1013
  • 150020Z AUTO 05005KT 3400 BR NCD 04/03 Q1013
  • 142350Z AUTO 06004KT 040V100 4400 BR NCD 04/03 Q1012

Expired Forecast.



MET'MAP, your aeronautical weather chart ! - Copyright ORBIFLY December 2007 - Disclaimer

ORBIFLY MET'MAP TEAM :

Programming & Development : Alexandra Zaïnal
Concept & Development : Baudouin d'Aumeries
Co-Development & Prog : Marc-Olivier Méhu
Technical & hardware support : Manuel Goepfert

Contact : metmap@orbifly.com




SOURCES & CREDITS :

   NOAA